sensor_id;sensor_type;location;lat;lon;timestamp;P1;durP1;ratioP1;P2;durP2;ratioP2
67053;SDS011;53960;51.826;5.850;2023-05-10T00:00:50;33.50;;;17.30;;
67053;SDS011;53960;51.826;5.850;2023-05-10T00:03:16;34.07;;;17.67;;
67053;SDS011;53960;51.826;5.850;2023-05-10T00:05:41;35.50;;;18.00;;
67053;SDS011;53960;51.826;5.850;2023-05-10T00:08:07;37.27;;;18.73;;
67053;SDS011;53960;51.826;5.850;2023-05-10T00:10:32;36.70;;;18.40;;
67053;SDS011;53960;51.826;5.850;2023-05-10T00:12:57;37.97;;;19.50;;
67053;SDS011;53960;51.826;5.850;2023-05-10T00:15:23;35.47;;;17.40;;
67053;SDS011;53960;51.826;5.850;2023-05-10T00:17:48;35.70;;;18.07;;
67053;SDS011;53960;51.826;5.850;2023-05-10T00:20:13;35.03;;;18.38;;
67053;SDS011;53960;51.826;5.850;2023-05-10T00:22:39;37.60;;;18.60;;
67053;SDS011;53960;51.826;5.850;2023-05-10T00:25:04;35.57;;;18.27;;
67053;SDS011;53960;51.826;5.850;2023-05-10T00:27:31;33.15;;;16.77;;
67053;SDS011;53960;51.826;5.850;2023-05-10T00:29:56;34.90;;;17.37;;
67053;SDS011;53960;51.826;5.850;2023-05-10T00:32:21;33.17;;;16.30;;
67053;SDS011;53960;51.826;5.850;2023-05-10T00:34:47;34.57;;;16.27;;
67053;SDS011;53960;51.826;5.850;2023-05-10T00:37:12;31.83;;;16.67;;
67053;SDS011;53960;51.826;5.850;2023-05-10T00:39:37;32.88;;;15.98;;
67053;SDS011;53960;51.826;5.850;2023-05-10T00:42:02;33.20;;;15.43;;
67053;SDS011;53960;51.826;5.850;2023-05-10T00:44:29;30.20;;;15.23;;
67053;SDS011;53960;51.826;5.850;2023-05-10T00:46:55;29.85;;;15.27;;
67053;SDS011;53960;51.826;5.850;2023-05-10T00:49:21;29.63;;;15.77;;
67053;SDS011;53960;51.826;5.850;2023-05-10T00:51:46;28.13;;;14.57;;
67053;SDS011;53960;51.826;5.850;2023-05-10T00:54:12;30.40;;;13.93;;
67053;SDS011;53960;51.826;5.850;2023-05-10T00:56:40;27.95;;;14.48;;
67053;SDS011;53960;51.826;5.850;2023-05-10T00:59:06;31.30;;;14.87;;
67053;SDS011;53960;51.826;5.850;2023-05-10T01:01:33;27.90;;;14.48;;
67053;SDS011;53960;51.826;5.850;2023-05-10T01:03:58;27.67;;;14.15;;
67053;SDS011;53960;51.826;5.850;2023-05-10T01:06:24;28.23;;;13.87;;
67053;SDS011;53960;51.826;5.850;2023-05-10T01:08:49;28.58;;;13.55;;
67053;SDS011;53960;51.826;5.850;2023-05-10T01:11:15;27.77;;;13.50;;
67053;SDS011;53960;51.826;5.850;2023-05-10T01:13:41;27.23;;;13.97;;
67053;SDS011;53960;51.826;5.850;2023-05-10T01:16:07;27.67;;;13.88;;
67053;SDS011;53960;51.826;5.850;2023-05-10T01:18:33;28.80;;;14.03;;
67053;SDS011;53960;51.826;5.850;2023-05-10T01:23:47;27.90;;;14.13;;
67053;SDS011;53960;51.826;5.850;2023-05-10T01:32:02;31.00;;;13.68;;
67053;SDS011;53960;51.826;5.850;2023-05-10T01:34:47;29.40;;;13.27;;
67053;SDS011;53960;51.826;5.850;2023-05-10T01:37:20;31.63;;;15.23;;
67053;SDS011;53960;51.826;5.850;2023-05-10T01:40:52;31.77;;;14.35;;
67053;SDS011;53960;51.826;5.850;2023-05-10T01:43:01;30.13;;;14.70;;
67053;SDS011;53960;51.826;5.850;2023-05-10T01:45:31;33.55;;;15.20;;
67053;SDS011;53960;51.826;5.850;2023-05-10T01:48:08;35.47;;;15.18;;
67053;SDS011;53960;51.826;5.850;2023-05-10T01:50:35;35.70;;;16.30;;
67053;SDS011;53960;51.826;5.850;2023-05-10T01:53:04;37.30;;;16.30;;
67053;SDS011;53960;51.826;5.850;2023-05-10T01:55:32;33.10;;;15.47;;
67053;SDS011;53960;51.826;5.850;2023-05-10T01:58:05;34.33;;;17.05;;
67053;SDS011;53960;51.826;5.850;2023-05-10T02:00:34;36.30;;;16.17;;
67053;SDS011;53960;51.826;5.850;2023-05-10T02:03:01;36.30;;;17.17;;
67053;SDS011;53960;51.826;5.850;2023-05-10T02:05:29;35.65;;;17.20;;
67053;SDS011;53960;51.826;5.850;2023-05-10T02:07:58;34.43;;;16.20;;
67053;SDS011;53960;51.826;5.850;2023-05-10T02:10:25;37.85;;;17.90;;
67053;SDS011;53960;51.826;5.850;2023-05-10T02:12:51;35.55;;;16.10;;
67053;SDS011;53960;51.826;5.850;2023-05-10T02:15:19;40.42;;;18.00;;
67053;SDS011;53960;51.826;5.850;2023-05-10T02:17:47;40.55;;;18.00;;
67053;SDS011;53960;51.826;5.850;2023-05-10T02:20:14;37.23;;;17.23;;
67053;SDS011;53960;51.826;5.850;2023-05-10T02:22:41;37.40;;;17.92;;
67053;SDS011;53960;51.826;5.850;2023-05-10T02:25:08;35.38;;;17.83;;
67053;SDS011;53960;51.826;5.850;2023-05-10T02:27:34;37.30;;;17.95;;
67053;SDS011;53960;51.826;5.850;2023-05-10T02:30:01;37.92;;;18.13;;
67053;SDS011;53960;51.826;5.850;2023-05-10T02:32:27;37.03;;;18.20;;
67053;SDS011;53960;51.826;5.850;2023-05-10T02:34:52;37.85;;;18.85;;
67053;SDS011;53960;51.826;5.850;2023-05-10T02:37:19;39.10;;;19.63;;
67053;SDS011;53960;51.826;5.850;2023-05-10T02:39:49;43.13;;;20.97;;
67053;SDS011;53960;51.826;5.850;2023-05-10T02:42:16;39.97;;;18.35;;
67053;SDS011;53960;51.826;5.850;2023-05-10T02:44:44;37.10;;;17.08;;
67053;SDS011;53960;51.826;5.850;2023-05-10T02:47:12;37.60;;;18.38;;
67053;SDS011;53960;51.826;5.850;2023-05-10T02:49:37;38.03;;;19.03;;
67053;SDS011;53960;51.826;5.850;2023-05-10T02:52:04;36.23;;;18.67;;
67053;SDS011;53960;51.826;5.850;2023-05-10T02:54:33;40.45;;;19.02;;
67053;SDS011;53960;51.826;5.850;2023-05-10T02:57:06;38.65;;;18.17;;
67053;SDS011;53960;51.826;5.850;2023-05-10T02:59:32;42.03;;;18.53;;
67053;SDS011;53960;51.826;5.850;2023-05-10T03:01:58;39.13;;;18.15;;
67053;SDS011;53960;51.826;5.850;2023-05-10T03:04:25;37.30;;;17.53;;
67053;SDS011;53960;51.826;5.850;2023-05-10T03:06:50;37.47;;;17.67;;
67053;SDS011;53960;51.826;5.850;2023-05-10T03:09:16;38.10;;;19.10;;
67053;SDS011;53960;51.826;5.850;2023-05-10T03:17:22;39.53;;;18.77;;
67053;SDS011;53960;51.826;5.850;2023-05-10T03:19:56;42.15;;;19.02;;
67053;SDS011;53960;51.826;5.850;2023-05-10T03:22:37;38.95;;;17.65;;
67053;SDS011;53960;51.826;5.850;2023-05-10T03:25:04;41.28;;;18.02;;
67053;SDS011;53960;51.826;5.850;2023-05-10T03:27:33;42.97;;;18.67;;
67053;SDS011;53960;51.826;5.850;2023-05-10T03:30:01;45.72;;;18.08;;
67053;SDS011;53960;51.826;5.850;2023-05-10T03:32:28;38.42;;;17.10;;
67053;SDS011;53960;51.826;5.850;2023-05-10T03:34:55;42.60;;;17.75;;
67053;SDS011;53960;51.826;5.850;2023-05-10T03:37:20;38.83;;;17.80;;
67053;SDS011;53960;51.826;5.850;2023-05-10T03:39:45;39.77;;;17.20;;
67053;SDS011;53960;51.826;5.850;2023-05-10T03:42:11;41.83;;;18.20;;
67053;SDS011;53960;51.826;5.850;2023-05-10T03:44:37;40.08;;;17.67;;
67053;SDS011;53960;51.826;5.850;2023-05-10T03:47:03;41.40;;;17.77;;
67053;SDS011;53960;51.826;5.850;2023-05-10T03:49:29;44.78;;;17.75;;
67053;SDS011;53960;51.826;5.850;2023-05-10T03:51:54;43.07;;;17.47;;
67053;SDS011;53960;51.826;5.850;2023-05-10T03:54:19;44.80;;;19.00;;
67053;SDS011;53960;51.826;5.850;2023-05-10T03:56:45;40.90;;;18.50;;
67053;SDS011;53960;51.826;5.850;2023-05-10T03:59:12;44.15;;;18.55;;
67053;SDS011;53960;51.826;5.850;2023-05-10T04:01:38;45.83;;;20.60;;
67053;SDS011;53960;51.826;5.850;2023-05-10T04:04:03;42.53;;;18.27;;
67053;SDS011;53960;51.826;5.850;2023-05-10T04:06:28;43.80;;;19.40;;
67053;SDS011;53960;51.826;5.850;2023-05-10T04:08:54;44.40;;;18.50;;
67053;SDS011;53960;51.826;5.850;2023-05-10T04:11:20;45.42;;;18.63;;
67053;SDS011;53960;51.826;5.850;2023-05-10T04:13:46;48.10;;;19.93;;
67053;SDS011;53960;51.826;5.850;2023-05-10T04:16:12;41.17;;;19.03;;
67053;SDS011;53960;51.826;5.850;2023-05-10T04:18:37;46.85;;;19.77;;
67053;SDS011;53960;51.826;5.850;2023-05-10T04:21:02;51.50;;;19.63;;
67053;SDS011;53960;51.826;5.850;2023-05-10T04:23:28;48.30;;;19.93;;
67053;SDS011;53960;51.826;5.850;2023-05-10T04:25:59;45.37;;;19.83;;
67053;SDS011;53960;51.826;5.850;2023-05-10T04:28:25;47.85;;;20.92;;
67053;SDS011;53960;51.826;5.850;2023-05-10T04:30:50;51.57;;;21.47;;
67053;SDS011;53960;51.826;5.850;2023-05-10T04:33:16;50.37;;;21.77;;
67053;SDS011;53960;51.826;5.850;2023-05-10T04:35:41;50.60;;;21.10;;
67053;SDS011;53960;51.826;5.850;2023-05-10T04:38:07;46.80;;;20.50;;
67053;SDS011;53960;51.826;5.850;2023-05-10T04:40:32;50.47;;;21.87;;
67053;SDS011;53960;51.826;5.850;2023-05-10T04:42:57;52.23;;;21.60;;
67053;SDS011;53960;51.826;5.850;2023-05-10T04:45:23;48.63;;;21.70;;
67053;SDS011;53960;51.826;5.850;2023-05-10T04:47:48;50.97;;;22.63;;
67053;SDS011;53960;51.826;5.850;2023-05-10T04:50:13;50.13;;;21.63;;
67053;SDS011;53960;51.826;5.850;2023-05-10T04:52:39;46.73;;;20.87;;
67053;SDS011;53960;51.826;5.850;2023-05-10T04:55:04;47.03;;;21.17;;
67053;SDS011;53960;51.826;5.850;2023-05-10T04:57:32;47.72;;;21.23;;
67053;SDS011;53960;51.826;5.850;2023-05-10T04:59:57;46.67;;;20.97;;
67053;SDS011;53960;51.826;5.850;2023-05-10T05:02:23;47.77;;;20.73;;
67053;SDS011;53960;51.826;5.850;2023-05-10T05:04:48;46.38;;;21.27;;
67053;SDS011;53960;51.826;5.850;2023-05-10T05:07:14;47.00;;;21.37;;
67053;SDS011;53960;51.826;5.850;2023-05-10T05:09:39;49.60;;;20.40;;
67053;SDS011;53960;51.826;5.850;2023-05-10T05:12:05;45.33;;;20.83;;
67053;SDS011;53960;51.826;5.850;2023-05-10T05:14:30;46.83;;;21.20;;
67053;SDS011;53960;51.826;5.850;2023-05-10T05:16:55;44.53;;;21.60;;
67053;SDS011;53960;51.826;5.850;2023-05-10T05:19:21;47.67;;;20.23;;
67053;SDS011;53960;51.826;5.850;2023-05-10T05:21:47;45.22;;;21.20;;
67053;SDS011;53960;51.826;5.850;2023-05-10T05:24:12;39.87;;;19.40;;
67053;SDS011;53960;51.826;5.850;2023-05-10T05:26:38;43.83;;;19.03;;
67053;SDS011;53960;51.826;5.850;2023-05-10T05:29:03;41.70;;;20.30;;
67053;SDS011;53960;51.826;5.850;2023-05-10T05:31:29;41.47;;;19.57;;
67053;SDS011;53960;51.826;5.850;2023-05-10T05:33:54;41.20;;;19.70;;
67053;SDS011;53960;51.826;5.850;2023-05-10T05:36:20;43.20;;;20.63;;
67053;SDS011;53960;51.826;5.850;2023-05-10T05:38:45;41.57;;;19.80;;
67053;SDS011;53960;51.826;5.850;2023-05-10T05:41:11;44.07;;;19.53;;
67053;SDS011;53960;51.826;5.850;2023-05-10T05:43:36;42.33;;;19.40;;
67053;SDS011;53960;51.826;5.850;2023-05-10T05:46:01;43.90;;;19.93;;
67053;SDS011;53960;51.826;5.850;2023-05-10T05:48:26;42.20;;;19.20;;
67053;SDS011;53960;51.826;5.850;2023-05-10T05:50:55;41.50;;;20.07;;
67053;SDS011;53960;51.826;5.850;2023-05-10T05:53:21;47.30;;;20.63;;
67053;SDS011;53960;51.826;5.850;2023-05-10T05:55:56;47.90;;;20.55;;
67053;SDS011;53960;51.826;5.850;2023-05-10T05:58:23;53.03;;;21.00;;
67053;SDS011;53960;51.826;5.850;2023-05-10T06:00:49;51.17;;;21.27;;
67053;SDS011;53960;51.826;5.850;2023-05-10T06:03:15;47.70;;;19.50;;
67053;SDS011;53960;51.826;5.850;2023-05-10T06:05:40;49.15;;;19.48;;
67053;SDS011;53960;51.826;5.850;2023-05-10T06:08:05;50.50;;;20.47;;
67053;SDS011;53960;51.826;5.850;2023-05-10T06:10:31;41.90;;;17.63;;
67053;SDS011;53960;51.826;5.850;2023-05-10T06:12:56;47.83;;;20.17;;
67053;SDS011;53960;51.826;5.850;2023-05-10T06:15:22;43.37;;;18.47;;
67053;SDS011;53960;51.826;5.850;2023-05-10T06:17:47;43.37;;;19.10;;
67053;SDS011;53960;51.826;5.850;2023-05-10T06:20:14;44.75;;;19.00;;
67053;SDS011;53960;51.826;5.850;2023-05-10T06:22:40;43.67;;;19.10;;
67053;SDS011;53960;51.826;5.850;2023-05-10T06:25:05;41.70;;;18.00;;
67053;SDS011;53960;51.826;5.850;2023-05-10T06:27:31;41.78;;;17.95;;
67053;SDS011;53960;51.826;5.850;2023-05-10T06:29:56;43.90;;;18.07;;
67053;SDS011;53960;51.826;5.850;2023-05-10T06:32:22;42.33;;;17.80;;
67053;SDS011;53960;51.826;5.850;2023-05-10T06:34:47;42.27;;;18.03;;
67053;SDS011;53960;51.826;5.850;2023-05-10T06:37:12;36.17;;;16.23;;
67053;SDS011;53960;51.826;5.850;2023-05-10T06:39:38;37.67;;;15.77;;
67053;SDS011;53960;51.826;5.850;2023-05-10T06:42:03;38.90;;;16.43;;
67053;SDS011;53960;51.826;5.850;2023-05-10T06:44:29;40.97;;;18.23;;
67053;SDS011;53960;51.826;5.850;2023-05-10T06:46:54;38.50;;;17.47;;
67053;SDS011;53960;51.826;5.850;2023-05-10T06:49:20;41.00;;;18.17;;
67053;SDS011;53960;51.826;5.850;2023-05-10T06:51:46;38.03;;;16.50;;
67053;SDS011;53960;51.826;5.850;2023-05-10T06:54:11;36.60;;;17.83;;
67053;SDS011;53960;51.826;5.850;2023-05-10T06:56:36;35.60;;;15.53;;
67053;SDS011;53960;51.826;5.850;2023-05-10T06:59:02;35.47;;;16.03;;
67053;SDS011;53960;51.826;5.850;2023-05-10T07:01:27;36.22;;;15.00;;
67053;SDS011;53960;51.826;5.850;2023-05-10T07:03:53;40.33;;;16.80;;
67053;SDS011;53960;51.826;5.850;2023-05-10T07:06:18;39.03;;;16.00;;
67053;SDS011;53960;51.826;5.850;2023-05-10T07:08:44;34.60;;;14.87;;
67053;SDS011;53960;51.826;5.850;2023-05-10T07:11:09;32.70;;;14.80;;
67053;SDS011;53960;51.826;5.850;2023-05-10T07:13:37;37.85;;;15.90;;
67053;SDS011;53960;51.826;5.850;2023-05-10T07:16:06;44.10;;;17.20;;
67053;SDS011;53960;51.826;5.850;2023-05-10T07:18:32;41.00;;;17.67;;
67053;SDS011;53960;51.826;5.850;2023-05-10T07:20:58;40.90;;;16.97;;
67053;SDS011;53960;51.826;5.850;2023-05-10T07:23:23;43.37;;;17.90;;
67053;SDS011;53960;51.826;5.850;2023-05-10T07:25:49;36.90;;;17.03;;
67053;SDS011;53960;51.826;5.850;2023-05-10T07:28:17;39.90;;;16.92;;
67053;SDS011;53960;51.826;5.850;2023-05-10T07:30:42;41.35;;;16.75;;
67053;SDS011;53960;51.826;5.850;2023-05-10T07:33:08;41.50;;;17.00;;
67053;SDS011;53960;51.826;5.850;2023-05-10T07:35:35;38.25;;;17.42;;
67053;SDS011;53960;51.826;5.850;2023-05-10T07:38:01;41.17;;;17.47;;
67053;SDS011;53960;51.826;5.850;2023-05-10T07:40:26;41.50;;;17.65;;
67053;SDS011;53960;51.826;5.850;2023-05-10T07:42:52;38.97;;;16.47;;
67053;SDS011;53960;51.826;5.850;2023-05-10T07:45:18;42.27;;;17.57;;
67053;SDS011;53960;51.826;5.850;2023-05-10T07:47:43;43.70;;;18.70;;
67053;SDS011;53960;51.826;5.850;2023-05-10T07:50:08;42.67;;;18.23;;
67053;SDS011;53960;51.826;5.850;2023-05-10T07:52:34;39.47;;;17.63;;
67053;SDS011;53960;51.826;5.850;2023-05-10T07:54:59;40.63;;;18.03;;
67053;SDS011;53960;51.826;5.850;2023-05-10T07:57:24;40.70;;;17.63;;
67053;SDS011;53960;51.826;5.850;2023-05-10T07:59:50;41.13;;;18.20;;
67053;SDS011;53960;51.826;5.850;2023-05-10T08:02:15;39.57;;;17.53;;
67053;SDS011;53960;51.826;5.850;2023-05-10T08:04:40;37.73;;;17.47;;
67053;SDS011;53960;51.826;5.850;2023-05-10T08:07:06;41.70;;;18.63;;
67053;SDS011;53960;51.826;5.850;2023-05-10T08:09:32;39.28;;;18.30;;
67053;SDS011;53960;51.826;5.850;2023-05-10T08:11:57;37.67;;;17.10;;
67053;SDS011;53960;51.826;5.850;2023-05-10T08:14:24;37.17;;;17.80;;
67053;SDS011;53960;51.826;5.850;2023-05-10T08:16:49;40.97;;;17.57;;
67053;SDS011;53960;51.826;5.850;2023-05-10T08:19:15;39.77;;;18.37;;
67053;SDS011;53960;51.826;5.850;2023-05-10T08:21:44;41.83;;;18.67;;
67053;SDS011;53960;51.826;5.850;2023-05-10T08:24:09;42.45;;;19.77;;
67053;SDS011;53960;51.826;5.850;2023-05-10T08:26:34;43.40;;;19.23;;
67053;SDS011;53960;51.826;5.850;2023-05-10T08:29:00;43.77;;;19.80;;
67053;SDS011;53960;51.826;5.850;2023-05-10T08:31:25;44.47;;;19.40;;
67053;SDS011;53960;51.826;5.850;2023-05-10T08:33:50;41.53;;;18.63;;
67053;SDS011;53960;51.826;5.850;2023-05-10T08:36:17;35.88;;;17.35;;
67053;SDS011;53960;51.826;5.850;2023-05-10T08:38:46;39.15;;;17.80;;
67053;SDS011;53960;51.826;5.850;2023-05-10T08:41:12;38.70;;;17.73;;
67053;SDS011;53960;51.826;5.850;2023-05-10T08:43:38;40.45;;;18.85;;
67053;SDS011;53960;51.826;5.850;2023-05-10T08:46:04;41.70;;;19.80;;
67053;SDS011;53960;51.826;5.850;2023-05-10T08:48:30;44.70;;;20.07;;
67053;SDS011;53960;51.826;5.850;2023-05-10T08:50:59;43.22;;;20.80;;
67053;SDS011;53960;51.826;5.850;2023-05-10T08:53:25;47.67;;;19.60;;
67053;SDS011;53960;51.826;5.850;2023-05-10T08:55:52;44.15;;;20.15;;
67053;SDS011;53960;51.826;5.850;2023-05-10T08:58:18;44.33;;;20.10;;
67053;SDS011;53960;51.826;5.850;2023-05-10T09:00:44;46.00;;;20.48;;
67053;SDS011;53960;51.826;5.850;2023-05-10T09:03:10;42.58;;;19.60;;
67053;SDS011;53960;51.826;5.850;2023-05-10T09:05:36;41.15;;;18.30;;
67053;SDS011;53960;51.826;5.850;2023-05-10T09:08:02;35.67;;;17.00;;
67053;SDS011;53960;51.826;5.850;2023-05-10T09:10:28;37.33;;;16.57;;
67053;SDS011;53960;51.826;5.850;2023-05-10T09:12:56;37.40;;;16.55;;
67053;SDS011;53960;51.826;5.850;2023-05-10T09:15:21;34.78;;;15.57;;
67053;SDS011;53960;51.826;5.850;2023-05-10T09:17:47;35.13;;;15.10;;
67053;SDS011;53960;51.826;5.850;2023-05-10T09:20:14;32.72;;;14.52;;
67053;SDS011;53960;51.826;5.850;2023-05-10T09:22:42;35.17;;;15.35;;
67053;SDS011;53960;51.826;5.850;2023-05-10T09:25:08;34.03;;;15.47;;
67053;SDS011;53960;51.826;5.850;2023-05-10T09:27:36;32.50;;;15.02;;
67053;SDS011;53960;51.826;5.850;2023-05-10T09:30:03;35.03;;;16.02;;
67053;SDS011;53960;51.826;5.850;2023-05-10T09:32:39;32.53;;;14.67;;
67053;SDS011;53960;51.826;5.850;2023-05-10T09:37:35;31.30;;;13.90;;
67053;SDS011;53960;51.826;5.850;2023-05-10T09:40:03;31.40;;;14.50;;
67053;SDS011;53960;51.826;5.850;2023-05-10T09:42:29;25.00;;;12.07;;
67053;SDS011;53960;51.826;5.850;2023-05-10T09:44:59;24.40;;;10.67;;
67053;SDS011;53960;51.826;5.850;2023-05-10T09:47:28;22.30;;;9.65;;
67053;SDS011;53960;51.826;5.850;2023-05-10T09:49:54;22.40;;;9.20;;
67053;SDS011;53960;51.826;5.850;2023-05-10T09:52:22;20.92;;;9.18;;
67053;SDS011;53960;51.826;5.850;2023-05-10T09:54:54;20.60;;;8.70;;
67053;SDS011;53960;51.826;5.850;2023-05-10T09:57:23;21.60;;;8.95;;
67053;SDS011;53960;51.826;5.850;2023-05-10T09:59:49;17.88;;;8.68;;
67053;SDS011;53960;51.826;5.850;2023-05-10T10:02:15;19.15;;;8.30;;
67053;SDS011;53960;51.826;5.850;2023-05-10T10:04:41;19.03;;;8.53;;
67053;SDS011;53960;51.826;5.850;2023-05-10T10:07:07;20.60;;;8.35;;
67053;SDS011;53960;51.826;5.850;2023-05-10T10:09:33;17.30;;;8.07;;
67053;SDS011;53960;51.826;5.850;2023-05-10T10:12:00;16.40;;;7.60;;
67053;SDS011;53960;51.826;5.850;2023-05-10T10:14:26;16.38;;;6.80;;
67053;SDS011;53960;51.826;5.850;2023-05-10T10:16:52;15.55;;;6.65;;
67053;SDS011;53960;51.826;5.850;2023-05-10T10:19:21;16.73;;;7.10;;
67053;SDS011;53960;51.826;5.850;2023-05-10T10:21:47;18.00;;;7.55;;
67053;SDS011;53960;51.826;5.850;2023-05-10T10:24:13;15.75;;;7.03;;
67053;SDS011;53960;51.826;5.850;2023-05-10T10:26:38;17.23;;;7.23;;
67053;SDS011;53960;51.826;5.850;2023-05-10T10:34:38;16.50;;;7.03;;
67053;SDS011;53960;51.826;5.850;2023-05-10T10:37:04;17.17;;;7.20;;
67053;SDS011;53960;51.826;5.850;2023-05-10T10:39:30;18.98;;;8.57;;
67053;SDS011;53960;51.826;5.850;2023-05-10T10:41:57;16.13;;;7.32;;
67053;SDS011;53960;51.826;5.850;2023-05-10T10:47:00;17.33;;;8.00;;
67053;SDS011;53960;51.826;5.850;2023-05-10T10:49:28;19.35;;;7.85;;
67053;SDS011;53960;51.826;5.850;2023-05-10T10:54:40;14.45;;;5.97;;
67053;SDS011;53960;51.826;5.850;2023-05-10T10:57:10;13.50;;;5.35;;
67053;SDS011;53960;51.826;5.850;2023-05-10T10:59:43;11.37;;;4.50;;
67053;SDS011;53960;51.826;5.850;2023-05-10T11:02:09;11.13;;;4.75;;
67053;SDS011;53960;51.826;5.850;2023-05-10T11:04:41;11.38;;;4.68;;
67053;SDS011;53960;51.826;5.850;2023-05-10T11:07:17;11.13;;;4.50;;
67053;SDS011;53960;51.826;5.850;2023-05-10T11:09:43;10.07;;;4.18;;
67053;SDS011;53960;51.826;5.850;2023-05-10T11:12:10;11.65;;;4.30;;
67053;SDS011;53960;51.826;5.850;2023-05-10T11:14:35;9.93;;;3.90;;
67053;SDS011;53960;51.826;5.850;2023-05-10T11:17:00;10.60;;;4.90;;
67053;SDS011;53960;51.826;5.850;2023-05-10T11:19:27;11.07;;;4.17;;
67053;SDS011;53960;51.826;5.850;2023-05-10T11:24:30;10.97;;;5.03;;
67053;SDS011;53960;51.826;5.850;2023-05-10T11:26:56;11.85;;;4.95;;
67053;SDS011;53960;51.826;5.850;2023-05-10T11:29:21;13.17;;;5.80;;
67053;SDS011;53960;51.826;5.850;2023-05-10T11:31:47;13.45;;;5.50;;
67053;SDS011;53960;51.826;5.850;2023-05-10T11:34:26;13.88;;;5.53;;
67053;SDS011;53960;51.826;5.850;2023-05-10T11:36:54;12.10;;;5.30;;
67053;SDS011;53960;51.826;5.850;2023-05-10T11:39:20;13.30;;;5.30;;
67053;SDS011;53960;51.826;5.850;2023-05-10T11:41:49;10.80;;;4.32;;
67053;SDS011;53960;51.826;5.850;2023-05-10T11:44:15;10.63;;;4.20;;
67053;SDS011;53960;51.826;5.850;2023-05-10T11:46:40;11.43;;;4.70;;
67053;SDS011;53960;51.826;5.850;2023-05-10T11:49:06;11.43;;;4.28;;
67053;SDS011;53960;51.826;5.850;2023-05-10T11:51:35;12.40;;;5.03;;
67053;SDS011;53960;51.826;5.850;2023-05-10T11:54:01;11.45;;;5.18;;
67053;SDS011;53960;51.826;5.850;2023-05-10T11:56:32;11.75;;;5.13;;
67053;SDS011;53960;51.826;5.850;2023-05-10T11:58:58;11.50;;;4.97;;
67053;SDS011;53960;51.826;5.850;2023-05-10T12:01:25;11.73;;;4.85;;
67053;SDS011;53960;51.826;5.850;2023-05-10T12:03:52;12.90;;;5.13;;
67053;SDS011;53960;51.826;5.850;2023-05-10T12:06:19;11.57;;;5.00;;
67053;SDS011;53960;51.826;5.850;2023-05-10T12:08:46;10.40;;;4.53;;
67053;SDS011;53960;51.826;5.850;2023-05-10T12:11:13;11.13;;;5.28;;
67053;SDS011;53960;51.826;5.850;2023-05-10T12:13:41;12.50;;;5.18;;
67053;SDS011;53960;51.826;5.850;2023-05-10T12:16:17;11.40;;;4.70;;
67053;SDS011;53960;51.826;5.850;2023-05-10T12:18:43;12.32;;;4.90;;
67053;SDS011;53960;51.826;5.850;2023-05-10T12:21:12;10.60;;;5.07;;
67053;SDS011;53960;51.826;5.850;2023-05-10T12:23:38;11.63;;;5.10;;
67053;SDS011;53960;51.826;5.850;2023-05-10T12:26:04;11.80;;;5.00;;
67053;SDS011;53960;51.826;5.850;2023-05-10T12:28:31;15.60;;;5.40;;
67053;SDS011;53960;51.826;5.850;2023-05-10T12:30:57;13.55;;;4.97;;
67053;SDS011;53960;51.826;5.850;2023-05-10T12:33:23;11.02;;;4.85;;
67053;SDS011;53960;51.826;5.850;2023-05-10T12:35:52;10.67;;;4.83;;
67053;SDS011;53960;51.826;5.850;2023-05-10T12:38:25;11.05;;;4.10;;
67053;SDS011;53960;51.826;5.850;2023-05-10T12:41:02;12.47;;;4.67;;
67053;SDS011;53960;51.826;5.850;2023-05-10T12:43:29;11.05;;;4.28;;
67053;SDS011;53960;51.826;5.850;2023-05-10T12:45:55;10.48;;;4.82;;
67053;SDS011;53960;51.826;5.850;2023-05-10T12:48:20;13.77;;;4.63;;
67053;SDS011;53960;51.826;5.850;2023-05-10T12:50:46;12.30;;;4.60;;
67053;SDS011;53960;51.826;5.850;2023-05-10T12:53:12;12.43;;;4.93;;
67053;SDS011;53960;51.826;5.850;2023-05-10T12:55:40;10.27;;;4.60;;
67053;SDS011;53960;51.826;5.850;2023-05-10T12:58:05;13.97;;;6.20;;
67053;SDS011;53960;51.826;5.850;2023-05-10T13:00:30;12.00;;;5.63;;
67053;SDS011;53960;51.826;5.850;2023-05-10T13:02:56;11.70;;;5.60;;
67053;SDS011;53960;51.826;5.850;2023-05-10T13:05:21;12.23;;;5.90;;
67053;SDS011;53960;51.826;5.850;2023-05-10T13:07:46;11.43;;;5.43;;
67053;SDS011;53960;51.826;5.850;2023-05-10T13:10:12;12.40;;;6.03;;
67053;SDS011;53960;51.826;5.850;2023-05-10T13:12:37;14.27;;;6.47;;
67053;SDS011;53960;51.826;5.850;2023-05-10T13:15:02;13.37;;;6.10;;
67053;SDS011;53960;51.826;5.850;2023-05-10T13:17:28;13.37;;;6.37;;
67053;SDS011;53960;51.826;5.850;2023-05-10T13:19:54;13.20;;;6.47;;
67053;SDS011;53960;51.826;5.850;2023-05-10T13:22:19;12.70;;;6.83;;
67053;SDS011;53960;51.826;5.850;2023-05-10T13:24:45;15.87;;;7.53;;
67053;SDS011;53960;51.826;5.850;2023-05-10T13:27:10;16.17;;;7.22;;
67053;SDS011;53960;51.826;5.850;2023-05-10T13:29:35;14.10;;;6.77;;
67053;SDS011;53960;51.826;5.850;2023-05-10T13:32:01;14.53;;;7.23;;
67053;SDS011;53960;51.826;5.850;2023-05-10T13:34:26;14.87;;;7.67;;
67053;SDS011;53960;51.826;5.850;2023-05-10T13:36:52;14.03;;;7.87;;
67053;SDS011;53960;51.826;5.850;2023-05-10T13:39:18;13.45;;;7.55;;
67053;SDS011;53960;51.826;5.850;2023-05-10T13:41:45;13.48;;;7.55;;
67053;SDS011;53960;51.826;5.850;2023-05-10T13:44:11;14.70;;;7.97;;
67053;SDS011;53960;51.826;5.850;2023-05-10T13:46:38;13.95;;;7.85;;
67053;SDS011;53960;51.826;5.850;2023-05-10T13:49:03;15.00;;;7.80;;
67053;SDS011;53960;51.826;5.850;2023-05-10T13:51:29;14.47;;;7.37;;
67053;SDS011;53960;51.826;5.850;2023-05-10T13:53:54;14.52;;;7.70;;
67053;SDS011;53960;51.826;5.850;2023-05-10T13:56:19;12.50;;;6.90;;
67053;SDS011;53960;51.826;5.850;2023-05-10T13:58:45;14.13;;;7.20;;
67053;SDS011;53960;51.826;5.850;2023-05-10T14:01:10;13.13;;;6.83;;
67053;SDS011;53960;51.826;5.850;2023-05-10T14:03:37;12.45;;;6.72;;
67053;SDS011;53960;51.826;5.850;2023-05-10T14:06:02;11.60;;;6.67;;
67053;SDS011;53960;51.826;5.850;2023-05-10T14:08:27;11.50;;;5.40;;
67053;SDS011;53960;51.826;5.850;2023-05-10T14:10:53;10.65;;;5.35;;
67053;SDS011;53960;51.826;5.850;2023-05-10T14:13:18;11.30;;;5.47;;
67053;SDS011;53960;51.826;5.850;2023-05-10T14:15:43;11.23;;;6.40;;
67053;SDS011;53960;51.826;5.850;2023-05-10T14:18:09;11.77;;;6.70;;
67053;SDS011;53960;51.826;5.850;2023-05-10T14:20:34;13.70;;;6.37;;
67053;SDS011;53960;51.826;5.850;2023-05-10T14:22:59;11.20;;;6.23;;
67053;SDS011;53960;51.826;5.850;2023-05-10T14:25:25;12.13;;;6.57;;
67053;SDS011;53960;51.826;5.850;2023-05-10T14:27:50;12.07;;;6.83;;
67053;SDS011;53960;51.826;5.850;2023-05-10T14:30:16;13.43;;;7.40;;
67053;SDS011;53960;51.826;5.850;2023-05-10T14:32:41;13.63;;;7.57;;
67053;SDS011;53960;51.826;5.850;2023-05-10T14:35:07;13.77;;;7.87;;
67053;SDS011;53960;51.826;5.850;2023-05-10T14:37:32;13.53;;;7.70;;
67053;SDS011;53960;51.826;5.850;2023-05-10T14:39:58;13.77;;;7.93;;
67053;SDS011;53960;51.826;5.850;2023-05-10T14:42:23;11.63;;;6.03;;
67053;SDS011;53960;51.826;5.850;2023-05-10T14:44:48;12.83;;;6.30;;
67053;SDS011;53960;51.826;5.850;2023-05-10T14:47:14;13.17;;;7.03;;
67053;SDS011;53960;51.826;5.850;2023-05-10T14:49:39;12.87;;;6.60;;
67053;SDS011;53960;51.826;5.850;2023-05-10T14:52:05;12.93;;;7.28;;